Time;durP1;ratioP1;P1;durP2;ratioP2;P2;SDS_P1;SDS_P2;PMS_P1;PMS_P2;Temp;Humidity;BMP_temperature;BMP_pressure;BME280_temperature;BME280_humidity;BME280_pressure;Samples;Min_cycle;Max_cycle;Signal;HPM_P1;HPM_P2
2022/10/08 00:01:18;;;;;;;9.80;9.33;;;;;;;10.22;77.43;93564.03;5049955;28;20238;-75
2022/10/08 00:03:46;;;;;;;9.60;9.10;;;;;;;10.14;78.03;93560.06;5059057;28;20229;-75
2022/10/08 00:06:17;;;;;;;9.97;9.10;;;;;;;10.09;77.38;93544.38;5069528;28;20205;-76
2022/10/08 00:08:48;;;;;;;10.00;9.50;;;;;;;10.20;77.67;93553.84;5069191;28;20277;-75
2022/10/08 00:11:16;;;;;;;10.07;9.57;;;;;;;10.15;77.49;93550.44;5069483;28;20188;-76
2022/10/08 00:13:43;;;;;;;10.07;9.67;;;;;;;10.32;76.95;93557.03;5068755;28;20225;-75
2022/10/08 00:16:12;;;;;;;10.13;9.63;;;;;;;10.02;77.12;93506.47;5069543;28;20173;-75
2022/10/08 00:18:40;;;;;;;11.00;10.27;;;;;;;10.08;78.57;93534.19;5068598;28;20225;-76
2022/10/08 00:21:13;;;;;;;10.13;9.63;;;;;;;10.21;77.82;93538.97;5067409;28;20210;-76
2022/10/08 00:23:39;;;;;;;9.60;9.17;;;;;;;10.14;78.55;93527.97;5068023;28;20223;-76
2022/10/08 00:26:06;;;;;;;9.83;9.07;;;;;;;10.20;77.24;93538.19;5067926;28;20224;-76
2022/10/08 00:28:33;;;;;;;9.80;9.30;;;;;;;10.15;77.79;93535.53;5067612;28;20256;-76
2022/10/08 00:31:05;;;;;;;10.53;9.93;;;;;;;10.01;78.02;93515.34;5068617;28;20182;-76
2022/10/08 00:33:30;;;;;;;8.90;8.60;;;;;;;10.26;77.44;93531.16;5067943;28;20234;-76
2022/10/08 00:36:00;;;;;;;9.93;9.33;;;;;;;10.27;77.52;93533.53;5069107;28;20182;-76
2022/10/08 00:38:25;;;;;;;9.33;8.83;;;;;;;10.05;77.97;93504.16;5068934;28;20245;-76
2022/10/08 00:40:51;;;;;;;9.77;9.00;;;;;;;10.24;77.10;93523.56;5069047;28;20191;-76
2022/10/08 00:43:16;;;;;;;10.03;9.37;;;;;;;10.20;77.11;93519.91;5068862;28;20224;-76
2022/10/08 00:45:44;;;;;;;9.60;9.07;;;;;;;10.32;76.24;93520.47;5069232;28;20277;-76
2022/10/08 00:48:19;;;;;;;10.07;9.57;;;;;;;10.13;76.86;93497.69;5068980;28;20212;-76
2022/10/08 00:50:46;;;;;;;9.20;8.70;;;;;;;10.32;75.95;93520.47;5067669;28;20208;-76
2022/10/08 00:53:11;;;;;;;11.00;10.07;;;;;;;10.37;76.08;93527.56;5067841;28;20229;-76
2022/10/08 00:55:39;;;;;;;9.83;9.33;;;;;;;10.32;76.87;93509.28;5072541;28;20185;-76
2022/10/08 00:58:26;;;;;;;10.07;9.57;;;;;;;10.28;77.80;93510.81;5072579;28;20232;-76
2022/10/08 01:00:52;;;;;;;10.47;9.77;;;;;;;10.12;77.99;93486.47;5072640;28;20193;-76
2022/10/08 01:03:17;;;;;;;10.40;9.80;;;;;;;10.22;77.81;93501.38;5072104;28;20238;-76
2022/10/08 01:05:54;;;;;;;9.27;8.77;;;;;;;10.21;78.56;93510.28;5072760;28;20286;-76
2022/10/08 01:08:28;;;;;;;10.53;10.03;;;;;;;10.18;79.12;93503.72;5071330;28;20474;-77
2022/10/08 01:11:02;;;;;;;9.23;8.83;;;;;;;10.16;79.23;93495.38;5072744;28;20247;-76
2022/10/08 01:13:40;;;;;;;9.63;9.17;;;;;;;10.05;80.47;93498.16;5086517;28;20275;-76
2022/10/08 01:16:27;;;;;;;10.07;9.37;;;;;;;10.18;80.88;93493.28;5071790;28;20196;-76
2022/10/08 01:19:17;;;;;;;9.60;9.20;;;;;;;10.03;80.95;93495.00;5071368;28;20252;-76
2022/10/08 01:22:20;;;;;;;10.37;9.87;;;;;;;10.09;81.59;93491.41;5072136;28;20190;-76
2022/10/08 01:27:45;;;;;;;10.10;9.63;;;;;;;10.04;82.53;93475.72;5071880;28;20246;-76
2022/10/08 01:30:15;;;;;;;10.77;10.07;;;;;;;10.07;83.01;93483.03;5072229;28;20707;-76
2022/10/08 01:32:47;;;;;;;11.23;10.53;;;;;;;10.00;83.59;93465.00;5071674;28;20177;-76
2022/10/08 01:35:19;;;;;;;10.70;10.20;;;;;;;10.21;83.87;93479.72;5072182;28;20189;-76
2022/10/08 01:37:46;;;;;;;10.40;9.80;;;;;;;10.06;83.88;93452.75;5069495;28;20182;-76
2022/10/08 01:40:19;;;;;;;10.20;9.57;;;;;;;10.04;84.67;93454.84;5070636;28;20204;-76
2022/10/08 01:42:48;;;;;;;10.90;10.20;;;;;;;10.18;84.75;93466.41;5070743;28;20180;-75
2022/10/08 01:45:19;;;;;;;10.80;10.20;;;;;;;10.23;84.70;93463.81;5071745;28;20217;-76
2022/10/08 01:47:46;;;;;;;12.03;11.23;;;;;;;10.19;85.51;93447.91;5071263;28;20212;-76
2022/10/08 01:50:29;;;;;;;10.80;10.07;;;;;;;10.21;85.44;93445.78;5071814;28;20181;-76
2022/10/08 01:53:01;;;;;;;11.27;10.57;;;;;;;10.25;85.71;93452.09;5070909;28;20233;-76
2022/10/08 01:55:33;;;;;;;11.37;10.57;;;;;;;10.20;85.99;93453.88;5071189;28;20228;-76
2022/10/08 01:58:03;;;;;;;11.37;10.77;;;;;;;10.13;86.95;93454.13;5071166;28;20302;-76
2022/10/08 02:00:31;;;;;;;10.23;9.73;;;;;;;10.13;87.16;93450.72;5070273;28;20208;-76
2022/10/08 02:02:56;;;;;;;11.70;11.00;;;;;;;9.95;88.53;93457.13;5070439;28;20249;-76
2022/10/08 02:05:26;;;;;;;11.67;11.07;;;;;;;9.76;88.73;93427.31;5070495;28;20229;-76
2022/10/08 02:07:53;;;;;;;11.67;11.07;;;;;;;9.92;88.69;93446.41;5071234;28;20193;-76
2022/10/08 02:10:22;;;;;;;11.13;10.23;;;;;;;9.93;89.59;93458.44;5070147;28;20170;-76
2022/10/08 02:12:48;;;;;;;11.67;11.03;;;;;;;9.92;89.39;93456.84;5069997;28;20189;-76
2022/10/08 02:15:19;;;;;;;10.53;9.80;;;;;;;9.97;89.14;93462.09;5071674;28;20182;-76
2022/10/08 02:18:17;;;;;;;11.47;10.77;;;;;;;9.91;88.16;93444.84;5071643;28;20204;-76
2022/10/08 02:21:02;;;;;;;11.73;10.83;;;;;;;9.97;88.33;93469.94;5071395;28;20180;-74
2022/10/08 02:23:33;;;;;;;11.40;10.40;;;;;;;9.78;89.56;93457.31;5070630;28;20232;-76
2022/10/08 02:26:11;;;;;;;11.70;10.87;;;;;;;9.79;89.95;93458.88;5070550;28;20226;-76
2022/10/08 02:28:57;;;;;;;11.30;10.60;;;;;;;9.61;90.63;93450.69;5071176;28;20222;-76
2022/10/08 02:31:30;;;;;;;11.60;10.93;;;;;;;9.60;91.34;93457.72;5071470;28;20193;-76
2022/10/08 02:34:16;;;;;;;11.77;11.17;;;;;;;9.56;91.70;93461.06;5070534;28;20229;-76
2022/10/08 02:36:46;;;;;;;11.07;10.37;;;;;;;9.35;91.81;93430.72;5086464;28;20185;-76
2022/10/08 02:39:15;;;;;;;11.63;10.83;;;;;;;9.51;92.40;93463.66;5070004;28;20244;-76
2022/10/08 02:41:49;;;;;;;11.93;11.23;;;;;;;9.29;94.81;93455.16;5071461;28;20189;-76
2022/10/08 02:44:20;;;;;;;11.80;10.83;;;;;;;9.29;94.43;93449.97;5070104;28;20228;-76
2022/10/08 02:46:49;;;;;;;11.63;10.83;;;;;;;9.37;93.97;93449.50;5069972;28;20194;-76
2022/10/08 02:49:21;;;;;;;12.33;11.63;;;;;;;9.41;94.35;93455.78;5069650;28;20297;-76
2022/10/08 02:51:49;;;;;;;11.50;10.80;;;;;;;9.29;94.22;93447.34;5070049;28;20182;-76
2022/10/08 02:54:19;;;;;;;12.73;12.03;;;;;;;9.21;94.88;93440.00;5069929;28;20251;-75
2022/10/08 02:56:55;;;;;;;12.33;11.47;;;;;;;9.04;95.73;93436.75;5070941;28;20181;-76
2022/10/08 02:59:22;;;;;;;10.77;10.07;;;;;;;9.20;95.84;93449.63;5069228;28;20228;-76
2022/10/08 03:01:54;;;;;;;12.07;11.27;;;;;;;9.16;96.20;93443.34;5070740;28;20227;-76
2022/10/08 03:04:44;;;;;;;12.13;11.40;;;;;;;9.01;96.23;93429.41;5070702;28;20312;-76
2022/10/08 03:07:12;;;;;;;13.20;12.03;;;;;;;9.06;96.56;93445.06;5070525;28;20174;-76
2022/10/08 03:09:41;;;;;;;11.67;10.63;;;;;;;8.97;96.81;93423.13;5070425;28;20232;-76
2022/10/08 03:12:07;;;;;;;12.57;11.77;;;;;;;9.14;96.73;93447.22;5070298;28;20185;-76
2022/10/08 03:14:39;;;;;;;12.40;11.37;;;;;;;8.99;97.09;93442.69;5070429;28;20255;-76
2022/10/08 03:17:06;;;;;;;14.10;12.97;;;;;;;8.96;97.34;93434.59;5070383;28;20239;-76
2022/10/08 03:19:33;;;;;;;12.67;11.87;;;;;;;9.07;96.83;93444.06;5068762;28;20225;-76
2022/10/08 03:22:00;;;;;;;12.43;11.53;;;;;;;9.01;97.38;93442.44;5070344;28;20182;-76
2022/10/08 03:24:25;;;;;;;12.80;11.80;;;;;;;8.75;97.14;93404.19;5068691;28;20240;-76
2022/10/08 03:26:52;;;;;;;13.10;12.20;;;;;;;8.80;97.18;93438.06;5069423;28;20201;-76
2022/10/08 03:29:17;;;;;;;13.27;12.30;;;;;;;8.62;98.31;93410.59;5069554;28;20225;-76
2022/10/08 03:31:42;;;;;;;13.17;12.00;;;;;;;8.87;97.63;93439.44;5069481;28;20183;-76
2022/10/08 03:34:08;;;;;;;13.43;12.43;;;;;;;8.58;97.75;93396.50;5069003;28;20247;-76
2022/10/08 03:36:33;;;;;;;13.17;12.27;;;;;;;8.61;97.45;93408.22;5068595;28;20177;-76
2022/10/08 03:38:59;;;;;;;13.13;11.93;;;;;;;8.68;98.22;93427.03;5069430;28;20232;-76
2022/10/08 03:41:24;;;;;;;13.00;12.00;;;;;;;8.71;98.58;93442.16;5070063;28;20169;-76
2022/10/08 03:43:50;;;;;;;13.67;12.47;;;;;;;8.85;98.04;93432.94;5068821;28;20229;-76
2022/10/08 03:46:15;;;;;;;13.20;12.30;;;;;;;8.68;98.64;93432.25;5069702;28;20271;-76
2022/10/08 03:48:41;;;;;;;12.80;11.77;;;;;;;8.74;99.18;93428.66;5068317;28;20229;-76
2022/10/08 03:51:10;;;;;;;12.33;11.43;;;;;;;8.88;98.70;93432.44;5069104;28;20231;-76
2022/10/08 03:53:37;;;;;;;12.27;11.47;;;;;;;8.85;100.00;93431.13;5069078;28;20229;-76
2022/10/08 03:56:05;;;;;;;12.30;11.40;;;;;;;8.96;100.00;93418.97;5069755;28;20216;-76
2022/10/08 03:58:31;;;;;;;13.13;12.27;;;;;;;8.96;100.00;93430.16;5069071;28;20322;-76
2022/10/08 04:00:58;;;;;;;12.37;11.63;;;;;;;8.99;100.00;93437.47;5069290;28;20193;-76
2022/10/08 04:03:24;;;;;;;13.17;12.27;;;;;;;8.95;99.94;93422.59;5068480;28;20239;-76
2022/10/08 04:05:50;;;;;;;12.73;11.83;;;;;;;8.91;100.00;93409.28;5069349;28;20229;-76
2022/10/08 04:08:15;;;;;;;13.40;12.43;;;;;;;8.95;100.00;93431.19;5067880;28;20260;-76
2022/10/08 04:10:41;;;;;;;14.23;13.10;;;;;;;8.85;100.00;93420.69;5069140;28;20181;-76
2022/10/08 04:13:06;;;;;;;12.70;11.83;;;;;;;8.89;99.98;93424.38;5068864;28;20229;-76
2022/10/08 04:15:32;;;;;;;12.83;11.83;;;;;;;8.92;100.00;93438.72;5069055;28;20196;-76
2022/10/08 04:17:57;;;;;;;13.33;12.43;;;;;;;8.80;100.00;93425.06;5069183;28;20229;-76
2022/10/08 04:20:22;;;;;;;12.83;12.00;;;;;;;8.89;99.90;93441.81;5069257;28;21709;-75
2022/10/08 04:22:48;;;;;;;12.10;11.30;;;;;;;8.81;100.00;93429.25;5069076;28;20218;-76
2022/10/08 04:25:14;;;;;;;12.63;11.57;;;;;;;8.72;100.00;93425.50;5069188;28;20205;-76
2022/10/08 04:27:39;;;;;;;13.53;12.53;;;;;;;8.62;100.00;93418.41;5069065;28;20188;-76
2022/10/08 04:30:06;;;;;;;14.90;13.70;;;;;;;8.68;100.00;93433.03;5068647;28;20208;-76
2022/10/08 04:32:32;;;;;;;14.30;13.20;;;;;;;8.58;100.00;93419.13;5068875;28;20189;-76
2022/10/08 04:34:57;;;;;;;16.17;14.77;;;;;;;8.51;100.00;93414.16;5068915;28;20229;-76
2022/10/08 04:37:23;;;;;;;18.50;16.67;;;;;;;8.53;100.00;93409.47;5068823;28;20184;-76
2022/10/08 04:39:48;;;;;;;19.70;17.07;;;;;;;8.67;100.00;93412.47;5068667;28;20225;-76
2022/10/08 04:42:13;;;;;;;15.10;13.33;;;;;;;8.49;100.00;93403.19;5068777;28;20197;-76
2022/10/08 04:44:39;;;;;;;15.17;14.00;;;;;;;8.57;100.00;93413.16;5067801;28;20243;-76
2022/10/08 04:47:04;;;;;;;17.93;15.33;;;;;;;8.53;100.00;93396.44;5067937;28;20207;-76
2022/10/08 04:49:29;;;;;;;53.23;30.20;;;;;;;8.26;100.00;93361.88;5068759;28;20224;-76
2022/10/08 04:51:55;;;;;;;57.63;31.30;;;;;;;8.39;100.00;93399.72;5068957;28;20178;-76
2022/10/08 04:54:20;;;;;;;56.80;30.47;;;;;;;8.60;100.00;93419.69;5064351;28;20256;-76
2022/10/08 04:56:46;;;;;;;368.87;142.80;;;;;;;8.52;100.00;93396.69;5049461;28;20208;-76
2022/10/08 04:59:11;;;;;;;340.27;143.83;;;;;;;8.81;100.00;93434.47;5047784;28;20218;-76
2022/10/08 05:01:37;;;;;;;265.57;110.60;;;;;;;8.58;100.00;93398.31;5049307;28;20225;-76
2022/10/08 05:04:02;;;;;;;249.63;104.13;;;;;;;8.70;100.00;93430.19;5058931;28;20232;-76
2022/10/08 05:06:30;;;;;;;113.43;55.60;;;;;;;8.82;100.00;93430.81;5068953;28;20236;-76
2022/10/08 05:08:57;;;;;;;166.57;77.40;;;;;;;8.73;100.00;93430.47;5068622;28;20311;-76
2022/10/08 05:11:24;;;;;;;223.03;108.20;;;;;;;8.79;100.00;93432.09;5069028;28;20193;-76
2022/10/08 05:13:51;;;;;;;451.30;205.50;;;;;;;8.85;100.00;93435.53;5066042;28;20232;-76
2022/10/08 05:16:18;;;;;;;529.80;262.43;;;;;;;8.78;100.00;93414.91;5067108;28;20194;-74
2022/10/08 05:18:44;;;;;;;420.27;185.07;;;;;;;8.91;100.00;93437.13;5067989;28;20233;-74
2022/10/08 05:21:16;;;;;;;385.20;168.60;;;;;;;8.92;100.00;93434.28;5067580;28;20189;-74
2022/10/08 05:23:42;;;;;;;306.63;132.70;;;;;;;8.86;100.00;93437.09;5067323;28;20240;-74
2022/10/08 05:26:28;;;;;;;77.57;45.00;;;;;;;8.79;100.00;93424.28;5066851;28;20289;-75
2022/10/08 05:28:56;;;;;;;36.93;28.13;;;;;;;8.91;100.00;93430.13;5064514;28;20232;-74
2022/10/08 05:31:23;;;;;;;24.17;21.53;;;;;;;8.89;100.00;93436.59;5068099;28;20233;-73
2022/10/08 05:33:48;;;;;;;21.53;18.97;;;;;;;8.76;100.00;93405.78;5056151;28;20226;-73
2022/10/08 05:36:22;;;;;;;20.17;18.07;;;;;;;9.08;100.00;93448.22;5047884;28;20202;-75
2022/10/08 05:38:48;;;;;;;18.13;16.23;;;;;;;9.09;100.00;93442.00;5057381;28;20256;-73
2022/10/08 05:41:17;;;;;;;15.53;14.13;;;;;;;9.14;100.00;93439.41;5069776;28;21274;-74
2022/10/08 05:43:43;;;;;;;14.87;13.77;;;;;;;9.31;100.00;93438.25;5070518;28;20221;-76
2022/10/08 05:46:09;;;;;;;15.83;14.17;;;;;;;9.35;100.00;93446.34;5071141;28;20209;-73
2022/10/08 05:48:35;;;;;;;15.23;13.93;;;;;;;9.57;99.15;93450.41;5062594;28;20226;-74
2022/10/08 05:51:19;;;;;;;15.50;14.30;;;;;;;9.57;98.47;93428.78;5050660;28;20237;-74
2022/10/08 05:53:46;;;;;;;14.20;13.00;;;;;;;9.82;96.94;93453.16;5047883;28;20240;-73
2022/10/08 05:56:14;;;;;;;15.07;13.97;;;;;;;9.90;95.30;93445.91;5040527;28;20178;-72
2022/10/08 05:58:41;;;;;;;14.57;13.27;;;;;;;10.04;94.81;93444.41;5046444;28;20259;-78
2022/10/08 06:01:11;;;;;;;15.03;13.77;;;;;;;10.26;92.52;93450.25;5051223;28;20197;-71
2022/10/08 06:03:36;;;;;;;14.77;13.47;;;;;;;10.15;92.76;93425.94;5046878;28;20238;-73
2022/10/08 06:06:04;;;;;;;15.87;14.40;;;;;;;10.38;91.74;93446.38;5043991;28;20236;-71
2022/10/08 06:08:30;;;;;;;14.37;13.10;;;;;;;10.47;90.38;93439.63;5045630;28;20234;-74
2022/10/08 06:10:56;;;;;;;15.57;14.10;;;;;;;10.32;89.70;93426.53;5051161;28;20178;-75
2022/10/08 06:13:22;;;;;;;16.00;14.77;;;;;;;10.64;89.32;93444.63;5056104;28;20224;-75
2022/10/08 06:16:06;;;;;;;14.63;13.07;;;;;;;10.84;88.67;93444.66;5070620;28;20193;-75
2022/10/08 06:18:34;;;;;;;14.63;13.43;;;;;;;11.11;86.79;93440.75;5070310;28;20226;-74
2022/10/08 06:21:02;;;;;;;13.90;12.93;;;;;;;11.19;85.84;93440.25;5068827;28;20184;-75
2022/10/08 06:23:28;;;;;;;15.53;13.97;;;;;;;11.06;85.66;93437.38;5069615;28;20292;-74
2022/10/08 06:25:53;;;;;;;14.63;13.23;;;;;;;11.28;85.30;93433.44;5069919;28;20209;-75
2022/10/08 06:28:19;;;;;;;16.97;15.37;;;;;;;11.20;86.65;93452.28;5068537;28;20233;-74
2022/10/08 06:30:44;;;;;;;16.17;14.67;;;;;;;11.50;85.44;93453.31;5068943;28;20278;-75
2022/10/08 06:33:09;;;;;;;15.83;14.23;;;;;;;11.55;84.65;93446.25;5069331;28;20222;-77
2022/10/08 06:35:36;;;;;;;17.70;15.93;;;;;;;11.35;85.51;93436.59;5069715;28;20193;-77
2022/10/08 06:38:02;;;;;;;16.93;15.27;;;;;;;11.69;85.14;93451.75;5069072;28;20233;-78
2022/10/08 06:40:31;;;;;;;19.40;15.93;;;;;;;11.50;86.91;93454.13;5069655;28;20304;-76
2022/10/08 06:42:56;;;;;;;17.57;15.77;;;;;;;11.76;85.49;93453.06;5068252;28;20272;-75
2022/10/08 06:45:22;;;;;;;17.13;15.43;;;;;;;11.77;85.57;93448.59;5069595;28;20225;-77
2022/10/08 06:47:48;;;;;;;18.50;16.60;;;;;;;11.94;84.71;93444.63;5068997;28;20189;-77
2022/10/08 06:50:13;;;;;;;20.40;15.80;;;;;;;11.95;85.82;93455.91;5067954;28;20194;-77
2022/10/08 06:52:39;;;;;;;17.57;15.93;;;;;;;11.80;87.33;93438.38;5068864;28;20203;-77
2022/10/08 06:55:04;;;;;;;17.80;16.10;;;;;;;11.67;86.77;93406.78;5069393;28;20194;-77
2022/10/08 06:57:30;;;;;;;19.40;16.13;;;;;;;11.61;88.60;93439.94;5068769;28;20210;-77
2022/10/08 06:59:57;;;;;;;21.43;17.60;;;;;;;11.82;88.07;93446.75;5069502;28;20297;-78
2022/10/08 07:02:23;;;;;;;20.13;17.07;;;;;;;12.00;87.90;93453.28;5069500;28;20198;-77
2022/10/08 07:04:48;;;;;;;17.83;16.13;;;;;;;11.89;88.63;93431.56;5068514;28;20232;-78
2022/10/08 07:07:14;;;;;;;20.50;16.57;;;;;;;12.09;87.22;93454.28;5069809;28;20253;-76
2022/10/08 07:09:39;;;;;;;21.73;16.63;;;;;;;12.28;87.52;93457.88;5067351;28;20225;-79
2022/10/08 07:12:04;;;;;;;18.47;16.57;;;;;;;12.16;86.40;93411.06;5067525;28;20183;-75
2022/10/08 07:14:30;;;;;;;44.47;20.40;;;;;;;12.79;83.26;93456.59;5069168;28;20219;-75
2022/10/08 07:16:55;;;;;;;31.53;20.23;;;;;;;12.70;82.40;93429.41;5068525;28;20185;-74
2022/10/08 07:19:20;;;;;;;23.63;16.90;;;;;;;12.93;82.82;93460.19;5068823;28;20225;-74
2022/10/08 07:21:46;;;;;;;29.27;20.83;;;;;;;13.15;81.68;93444.06;5069441;28;20185;-76
2022/10/08 07:24:11;;;;;;;65.13;33.87;;;;;;;13.19;81.06;93443.25;5069036;28;20221;-76
2022/10/08 07:26:36;;;;;;;33.33;20.90;;;;;;;13.38;80.50;93459.09;5069138;28;20308;-76
2022/10/08 07:29:07;;;;;;;19.23;14.93;;;;;;;13.53;79.44;93461.59;5068367;28;20820;-77
2022/10/08 07:31:35;;;;;;;44.00;23.17;;;;;;;13.51;79.22;93454.00;5067540;28;20194;-74
2022/10/08 07:34:03;;;;;;;28.80;20.00;;;;;;;13.62;78.85;93463.34;5067949;28;20221;-75
2022/10/08 07:36:29;;;;;;;18.67;16.60;;;;;;;13.57;79.64;93468.63;5067335;28;20185;-74
2022/10/08 07:38:59;;;;;;;32.73;17.80;;;;;;;13.59;79.51;93448.16;5055406;28;20229;-74
2022/10/08 07:41:25;;;;;;;26.10;18.10;;;;;;;13.83;77.43;93456.88;5046430;28;20978;-72
2022/10/08 07:43:52;;;;;;;25.97;18.37;;;;;;;13.88;78.13;93456.81;5057990;28;20236;-73
2022/10/08 07:46:18;;;;;;;18.63;16.70;;;;;;;13.98;77.89;93459.34;5067750;28;20216;-72
2022/10/08 07:48:44;;;;;;;21.50;16.30;;;;;;;13.63;78.86;93451.03;5068327;28;20251;-75
2022/10/08 07:51:15;;;;;;;20.47;15.33;;;;;;;13.93;77.88;93456.00;5069413;28;20174;-74
2022/10/08 07:53:42;;;;;;;17.27;15.33;;;;;;;14.15;75.52;93453.66;5067847;28;20284;-73
2022/10/08 07:56:09;;;;;;;17.10;15.40;;;;;;;14.02;76.87;93454.34;5069243;28;20203;-71
2022/10/08 07:58:36;;;;;;;15.60;13.80;;;;;;;13.78;77.51;93454.28;5068851;28;20233;-72
2022/10/08 08:01:03;;;;;;;20.73;15.67;;;;;;;13.95;77.43;93432.84;5067983;28;20174;-73
2022/10/08 08:03:29;;;;;;;33.00;18.77;;;;;;;14.16;75.86;93424.47;5067591;28;20256;-74
2022/10/08 08:06:00;;;;;;;17.77;15.27;;;;;;;14.57;74.15;93442.44;5069583;28;20213;-74
2022/10/08 08:08:25;;;;;;;17.90;16.20;;;;;;;14.70;73.74;93445.16;5068238;28;20252;-74
2022/10/08 08:10:58;;;;;;;31.87;19.43;;;;;;;14.66;73.90;93456.50;5067667;28;20193;-74
2022/10/08 08:13:25;;;;;;;16.73;15.00;;;;;;;14.68;73.13;93425.47;5067052;28;20283;-73
2022/10/08 08:15:57;;;;;;;16.90;15.07;;;;;;;14.68;73.03;93451.75;5068970;28;20185;-75
2022/10/08 08:18:23;;;;;;;22.37;14.67;;;;;;;14.66;73.42;93446.00;5068220;28;20235;-74
2022/10/08 08:20:55;;;;;;;16.03;14.40;;;;;;;14.84;72.42;93442.59;5068619;28;20304;-73
2022/10/08 08:23:20;;;;;;;15.33;13.90;;;;;;;14.42;73.21;93433.69;5068022;28;20221;-73
2022/10/08 08:25:46;;;;;;;13.63;12.07;;;;;;;14.66;70.22;93417.09;5068878;28;20213;-73
2022/10/08 08:28:11;;;;;;;14.20;12.90;;;;;;;14.91;70.89;93438.53;5068690;28;20228;-73
2022/10/08 08:30:36;;;;;;;12.83;11.83;;;;;;;15.04;69.79;93442.31;5068554;28;20228;-73
2022/10/08 08:33:02;;;;;;;12.87;11.87;;;;;;;14.77;71.06;93445.56;5068121;28;20299;-73
2022/10/08 08:35:27;;;;;;;12.00;11.13;;;;;;;14.94;69.74;93437.22;5069515;28;20189;-73
2022/10/08 08:37:52;;;;;;;12.80;11.80;;;;;;;14.98;68.86;93414.53;5068674;28;20283;-73
2022/10/08 08:40:18;;;;;;;12.17;11.37;;;;;;;15.10;68.67;93433.28;5068641;28;20260;-73
2022/10/08 08:42:55;;;;;;;13.37;12.37;;;;;;;14.92;70.05;93434.88;5067661;28;20196;-74
2022/10/08 08:45:28;;;;;;;13.10;12.30;;;;;;;14.99;68.03;93431.88;5068253;28;20205;-75
2022/10/08 08:48:01;;;;;;;12.13;11.33;;;;;;;15.48;67.65;93443.53;5067569;28;20292;-71
2022/10/08 08:50:34;;;;;;;12.43;11.43;;;;;;;15.56;65.27;93431.53;5069234;28;20257;-73
2022/10/08 08:53:01;;;;;;;11.30;10.53;;;;;;;15.58;64.14;93440.72;5067710;28;20225;-74
2022/10/08 08:55:49;;;;;;;12.47;11.50;;;;;;;15.52;63.70;93433.19;5068110;28;20213;-72
2022/10/08 08:58:39;;;;;;;12.20;11.30;;;;;;;15.52;63.11;93433.19;5067995;28;20247;-72
2022/10/08 09:01:07;;;;;;;12.70;11.60;;;;;;;15.20;64.88;93431.31;5068534;28;20170;-73
2022/10/08 09:03:40;;;;;;;10.87;10.17;;;;;;;15.23;62.89;93411.50;5068489;28;20229;-73
2022/10/08 09:06:11;;;;;;;11.17;10.40;;;;;;;15.26;61.82;93405.69;5068623;28;20204;-72
2022/10/08 09:08:49;;;;;;;10.40;9.80;;;;;;;15.67;59.70;93425.03;5068238;28;20228;-72
2022/10/08 09:11:18;;;;;;;11.40;10.60;;;;;;;15.48;63.85;93435.63;5067476;28;20184;-73
2022/10/08 09:13:48;;;;;;;11.57;10.57;;;;;;;15.46;62.51;93421.16;5068497;28;20236;-71
2022/10/08 09:16:15;;;;;;;12.53;11.70;;;;;;;15.69;61.30;93420.25;5071812;28;20169;-71
2022/10/08 09:18:47;;;;;;;11.00;10.30;;;;;;;15.79;57.63;93410.34;5072349;28;20237;-71
2022/10/08 09:21:13;;;;;;;13.33;12.43;;;;;;;15.90;58.76;93417.00;5071045;28;20165;-74
2022/10/08 09:23:38;;;;;;;13.10;12.20;;;;;;;15.66;60.91;93399.78;5068995;28;20224;-72
2022/10/08 09:26:07;;;;;;;10.90;10.27;;;;;;;15.25;61.45;93419.91;5072584;28;20212;-71
2022/10/08 09:28:37;;;;;;;11.40;10.70;;;;;;;15.39;64.04;93416.28;5071150;28;20265;-71
2022/10/08 09:31:31;;;;;;;11.83;10.73;;;;;;;15.30;62.25;93411.94;5071697;28;20269;-71
2022/10/08 09:33:59;;;;;;;11.57;10.73;;;;;;;15.53;63.38;93403.19;5069441;28;20228;-72
2022/10/08 09:36:39;;;;;;;11.57;10.57;;;;;;;15.96;58.10;93415.03;5071680;28;20193;-72
2022/10/08 09:39:15;;;;;;;10.87;9.97;;;;;;;15.57;60.67;93396.25;5071143;28;20213;-71
2022/10/08 09:41:40;;;;;;;11.70;10.80;;;;;;;15.48;61.22;93369.03;5071805;28;20196;-71
2022/10/08 09:44:11;;;;;;;11.63;10.80;;;;;;;15.82;62.30;93388.69;5071567;28;20225;-72
2022/10/08 09:46:37;;;;;;;12.13;11.27;;;;;;;16.01;62.77;93391.25;5071483;28;20213;-72
2022/10/08 09:49:26;;;;;;;12.03;11.27;;;;;;;15.98;60.00;93384.69;5071837;28;20255;-71
2022/10/08 09:51:52;;;;;;;11.50;10.53;;;;;;;16.37;60.24;93378.16;5063699;28;20202;-71
2022/10/08 09:54:23;;;;;;;11.83;11.03;;;;;;;16.68;58.98;93385.19;5071246;28;20274;-71
2022/10/08 09:56:52;;;;;;;11.37;10.67;;;;;;;16.77;57.01;93391.31;5096052;28;20201;-71
2022/10/08 09:59:21;;;;;;;11.63;10.80;;;;;;;16.68;57.95;93389.66;5071410;28;20224;-70
2022/10/08 10:01:47;;;;;;;11.33;10.50;;;;;;;16.56;57.75;93387.53;5071654;28;20216;-71
2022/10/08 10:04:35;;;;;;;12.33;11.17;;;;;;;16.40;57.57;93383.63;5071040;28;20225;-70
2022/10/08 10:07:01;;;;;;;11.17;10.37;;;;;;;16.31;57.91;93385.38;5068790;28;20238;-70
2022/10/08 10:09:42;;;;;;;11.47;10.60;;;;;;;16.64;57.02;93354.44;5070182;28;20296;-74
2022/10/08 10:12:11;;;;;;;11.17;10.37;;;;;;;16.61;59.43;93376.88;5070467;28;20185;-72
2022/10/08 10:14:42;;;;;;;11.00;10.20;;;;;;;16.99;56.31;93375.50;5070149;28;20226;-71
2022/10/08 10:17:29;;;;;;;10.73;10.07;;;;;;;17.00;55.96;93366.50;5070216;28;20240;-73
2022/10/08 10:20:00;;;;;;;11.40;10.70;;;;;;;16.73;56.36;93365.81;5069032;28;20388;-70
2022/10/08 10:22:45;;;;;;;11.07;10.37;;;;;;;17.02;54.61;93372.28;5069261;28;20198;-71
2022/10/08 10:25:10;;;;;;;11.73;10.93;;;;;;;17.13;54.77;93364.91;5069683;28;20249;-72
2022/10/08 10:27:52;;;;;;;11.17;10.37;;;;;;;16.69;56.58;93359.56;5068757;28;20186;-72
2022/10/08 10:30:22;;;;;;;10.83;10.00;;;;;;;16.75;56.37;93348.63;5069536;28;20185;-72
2022/10/08 10:33:15;;;;;;;11.73;10.93;;;;;;;16.68;58.51;93348.25;5069759;28;20197;-72
2022/10/08 10:35:49;;;;;;;10.90;10.27;;;;;;;16.88;58.35;93347.81;5069068;28;20204;-73
2022/10/08 10:38:22;;;;;;;10.83;9.90;;;;;;;16.75;56.01;93329.38;5062028;28;20228;-73
2022/10/08 10:40:57;;;;;;;12.17;11.17;;;;;;;16.88;56.41;93342.53;5048223;28;20216;-74
2022/10/08 10:43:31;;;;;;;11.93;11.17;;;;;;;16.91;55.13;93347.19;5054955;28;20235;-71
2022/10/08 10:46:08;;;;;;;11.17;10.37;;;;;;;17.33;53.77;93338.03;5069178;28;20193;-71
2022/10/08 10:48:34;;;;;;;11.23;10.20;;;;;;;17.06;55.78;93328.38;5068371;28;20221;-71
2022/10/08 10:51:21;;;;;;;10.10;9.50;;;;;;;17.03;56.36;93325.56;5069157;28;20188;-74
2022/10/08 10:54:20;;;;;;;11.10;10.30;;;;;;;17.15;54.30;93326.56;5067481;28;20221;-72
2022/10/08 10:57:15;;;;;;;11.50;10.70;;;;;;;17.22;52.98;93310.31;5069359;28;20212;-71
2022/10/08 10:59:45;;;;;;;11.60;10.80;;;;;;;17.49;53.63;93324.16;5065290;28;20237;-71
2022/10/08 11:02:13;;;;;;;13.93;12.83;;;;;;;17.52;51.79;93320.16;5069354;28;20178;-72
2022/10/08 11:04:39;;;;;;;10.80;10.03;;;;;;;17.49;53.06;93318.88;5067901;28;20969;-71
2022/10/08 11:07:12;;;;;;;12.70;11.80;;;;;;;17.39;52.46;93310.41;5067535;28;20312;-71
2022/10/08 11:09:54;;;;;;;10.83;10.13;;;;;;;17.14;55.06;93298.63;5067499;28;20225;-72
2022/10/08 11:12:26;;;;;;;10.97;10.17;;;;;;;17.37;53.27;93296.72;5068091;28;20221;-71
2022/10/08 11:15:04;;;;;;;10.67;9.87;;;;;;;17.32;52.48;93305.56;5067213;28;20233;-70
2022/10/08 11:17:44;;;;;;;11.07;10.27;;;;;;;17.18;53.66;93289.03;5068847;28;20216;-73
2022/10/08 11:20:18;;;;;;;11.03;10.33;;;;;;;17.43;53.81;93285.75;5047719;28;20206;-72
2022/10/08 11:22:56;;;;;;;12.83;11.93;;;;;;;17.53;52.18;93268.88;5046435;28;20210;-75
2022/10/08 11:25:34;;;;;;;10.47;9.67;;;;;;;17.81;50.91;93282.66;5048638;28;20198;-74
2022/10/08 11:28:05;;;;;;;10.40;9.77;;;;;;;17.75;51.42;93281.25;5048069;28;20233;-76
2022/10/08 11:30:43;;;;;;;11.80;10.93;;;;;;;17.74;52.32;93275.19;5047481;28;20186;-75
2022/10/08 11:33:12;;;;;;;11.27;10.37;;;;;;;17.60;53.31;93269.25;5047385;28;20230;-76
2022/10/08 11:35:46;;;;;;;12.37;11.50;;;;;;;17.90;52.78;93265.75;5048134;28;20277;-76